sensor_id;sensor_type;location;lat;lon;timestamp;P1;durP1;ratioP1;P2;durP2;ratioP2
59922;SDS011;45778;51.142;3.732;2023-06-26T00:00:12;5.25;;;2.45;;
59922;SDS011;45778;51.142;3.732;2023-06-26T00:02:39;5.70;;;2.95;;
59922;SDS011;45778;51.142;3.732;2023-06-26T00:05:05;6.60;;;2.40;;
59922;SDS011;45778;51.142;3.732;2023-06-26T00:07:31;3.20;;;2.60;;
59922;SDS011;45778;51.142;3.732;2023-06-26T00:10:00;5.10;;;2.70;;
59922;SDS011;45778;51.142;3.732;2023-06-26T00:12:27;6.00;;;2.60;;
59922;SDS011;45778;51.142;3.732;2023-06-26T00:14:53;6.28;;;2.92;;
59922;SDS011;45778;51.142;3.732;2023-06-26T00:17:19;5.28;;;2.83;;
59922;SDS011;45778;51.142;3.732;2023-06-26T00:19:45;6.88;;;3.08;;
59922;SDS011;45778;51.142;3.732;2023-06-26T00:22:11;11.95;;;3.40;;
59922;SDS011;45778;51.142;3.732;2023-06-26T00:24:37;5.40;;;3.50;;
59922;SDS011;45778;51.142;3.732;2023-06-26T00:27:02;6.30;;;2.95;;
59922;SDS011;45778;51.142;3.732;2023-06-26T00:29:28;7.97;;;3.10;;
59922;SDS011;45778;51.142;3.732;2023-06-26T00:31:54;5.63;;;2.97;;
59922;SDS011;45778;51.142;3.732;2023-06-26T00:34:19;6.68;;;2.58;;
59922;SDS011;45778;51.142;3.732;2023-06-26T00:36:45;6.90;;;2.88;;
59922;SDS011;45778;51.142;3.732;2023-06-26T00:39:11;6.15;;;2.63;;
59922;SDS011;45778;51.142;3.732;2023-06-26T00:41:37;5.70;;;2.88;;
59922;SDS011;45778;51.142;3.732;2023-06-26T00:44:03;6.38;;;3.08;;
59922;SDS011;45778;51.142;3.732;2023-06-26T00:46:30;6.72;;;2.88;;
59922;SDS011;45778;51.142;3.732;2023-06-26T00:48:56;5.15;;;3.35;;
59922;SDS011;45778;51.142;3.732;2023-06-26T00:51:25;6.72;;;3.42;;
59922;SDS011;45778;51.142;3.732;2023-06-26T00:53:52;6.78;;;4.45;;
59922;SDS011;45778;51.142;3.732;2023-06-26T00:56:18;7.40;;;3.00;;
59922;SDS011;45778;51.142;3.732;2023-06-26T00:58:45;6.93;;;3.20;;
59922;SDS011;45778;51.142;3.732;2023-06-26T01:01:10;10.48;;;3.22;;
59922;SDS011;45778;51.142;3.732;2023-06-26T01:03:41;8.88;;;3.58;;
59922;SDS011;45778;51.142;3.732;2023-06-26T01:06:07;7.75;;;3.58;;
59922;SDS011;45778;51.142;3.732;2023-06-26T01:08:36;4.70;;;3.15;;
59922;SDS011;45778;51.142;3.732;2023-06-26T01:11:03;7.65;;;3.40;;
59922;SDS011;45778;51.142;3.732;2023-06-26T01:13:29;6.15;;;3.38;;
59922;SDS011;45778;51.142;3.732;2023-06-26T01:15:55;10.77;;;3.80;;
59922;SDS011;45778;51.142;3.732;2023-06-26T01:18:23;8.05;;;3.17;;
59922;SDS011;45778;51.142;3.732;2023-06-26T01:20:50;8.50;;;3.50;;
59922;SDS011;45778;51.142;3.732;2023-06-26T01:28:44;7.07;;;3.45;;
59922;SDS011;45778;51.142;3.732;2023-06-26T01:31:11;8.00;;;3.22;;
59922;SDS011;45778;51.142;3.732;2023-06-26T01:33:38;7.60;;;3.17;;
59922;SDS011;45778;51.142;3.732;2023-06-26T01:36:05;8.18;;;2.88;;
59922;SDS011;45778;51.142;3.732;2023-06-26T01:38:32;8.10;;;3.38;;
59922;SDS011;45778;51.142;3.732;2023-06-26T01:40:59;8.90;;;3.60;;
59922;SDS011;45778;51.142;3.732;2023-06-26T01:44:27;9.07;;;3.78;;
59922;SDS011;45778;51.142;3.732;2023-06-26T01:52:07;7.95;;;3.35;;
59922;SDS011;45778;51.142;3.732;2023-06-26T01:54:47;9.63;;;4.20;;
59922;SDS011;45778;51.142;3.732;2023-06-26T01:57:23;9.55;;;3.72;;
59922;SDS011;45778;51.142;3.732;2023-06-26T01:59:53;12.45;;;4.30;;
59922;SDS011;45778;51.142;3.732;2023-06-26T02:02:20;12.32;;;4.22;;
59922;SDS011;45778;51.142;3.732;2023-06-26T02:04:49;10.18;;;4.05;;
59922;SDS011;45778;51.142;3.732;2023-06-26T02:07:14;10.40;;;4.50;;
59922;SDS011;45778;51.142;3.732;2023-06-26T02:09:40;10.60;;;4.53;;
59922;SDS011;45778;51.142;3.732;2023-06-26T02:12:06;13.75;;;4.45;;
59922;SDS011;45778;51.142;3.732;2023-06-26T02:14:32;13.95;;;4.60;;
59922;SDS011;45778;51.142;3.732;2023-06-26T02:16:58;13.23;;;4.88;;
59922;SDS011;45778;51.142;3.732;2023-06-26T02:19:25;11.88;;;5.03;;
59922;SDS011;45778;51.142;3.732;2023-06-26T02:21:52;10.18;;;4.45;;
59922;SDS011;45778;51.142;3.732;2023-06-26T02:24:18;13.23;;;4.53;;
59922;SDS011;45778;51.142;3.732;2023-06-26T02:26:44;10.02;;;4.57;;
59922;SDS011;45778;51.142;3.732;2023-06-26T02:29:11;14.30;;;5.00;;
59922;SDS011;45778;51.142;3.732;2023-06-26T02:31:37;12.15;;;3.95;;
59922;SDS011;45778;51.142;3.732;2023-06-26T02:34:03;10.63;;;5.07;;
59922;SDS011;45778;51.142;3.732;2023-06-26T02:36:29;11.15;;;5.00;;
59922;SDS011;45778;51.142;3.732;2023-06-26T02:38:55;16.90;;;5.07;;
59922;SDS011;45778;51.142;3.732;2023-06-26T02:41:21;18.45;;;5.55;;
59922;SDS011;45778;51.142;3.732;2023-06-26T02:43:46;13.82;;;4.35;;
59922;SDS011;45778;51.142;3.732;2023-06-26T02:46:12;16.30;;;5.05;;
59922;SDS011;45778;51.142;3.732;2023-06-26T02:48:38;14.52;;;5.32;;
59922;SDS011;45778;51.142;3.732;2023-06-26T02:51:04;11.32;;;5.05;;
59922;SDS011;45778;51.142;3.732;2023-06-26T02:53:30;12.23;;;4.70;;
59922;SDS011;45778;51.142;3.732;2023-06-26T02:55:56;16.88;;;4.53;;
59922;SDS011;45778;51.142;3.732;2023-06-26T02:58:22;11.73;;;4.40;;
59922;SDS011;45778;51.142;3.732;2023-06-26T03:00:47;12.27;;;4.72;;
59922;SDS011;45778;51.142;3.732;2023-06-26T03:03:13;17.40;;;4.93;;
59922;SDS011;45778;51.142;3.732;2023-06-26T03:05:39;21.30;;;5.40;;
59922;SDS011;45778;51.142;3.732;2023-06-26T03:08:05;14.00;;;4.55;;
59922;SDS011;45778;51.142;3.732;2023-06-26T03:10:31;15.95;;;5.57;;
59922;SDS011;45778;51.142;3.732;2023-06-26T03:12:56;17.55;;;6.05;;
59922;SDS011;45778;51.142;3.732;2023-06-26T03:15:22;14.13;;;4.85;;
59922;SDS011;45778;51.142;3.732;2023-06-26T03:17:48;15.43;;;4.70;;
59922;SDS011;45778;51.142;3.732;2023-06-26T03:20:13;13.10;;;4.45;;
59922;SDS011;45778;51.142;3.732;2023-06-26T03:22:40;13.48;;;4.85;;
59922;SDS011;45778;51.142;3.732;2023-06-26T03:25:06;16.60;;;5.00;;
59922;SDS011;45778;51.142;3.732;2023-06-26T03:27:32;11.95;;;4.78;;
59922;SDS011;45778;51.142;3.732;2023-06-26T03:29:57;14.18;;;5.13;;
59922;SDS011;45778;51.142;3.732;2023-06-26T03:32:23;16.42;;;5.07;;
59922;SDS011;45778;51.142;3.732;2023-06-26T03:34:49;16.60;;;5.50;;
59922;SDS011;45778;51.142;3.732;2023-06-26T03:37:14;13.18;;;5.13;;
59922;SDS011;45778;51.142;3.732;2023-06-26T03:39:40;15.60;;;4.97;;
59922;SDS011;45778;51.142;3.732;2023-06-26T03:42:06;14.15;;;4.82;;
59922;SDS011;45778;51.142;3.732;2023-06-26T03:44:32;17.08;;;5.50;;
59922;SDS011;45778;51.142;3.732;2023-06-26T03:46:57;15.60;;;4.90;;
59922;SDS011;45778;51.142;3.732;2023-06-26T03:49:23;11.93;;;4.63;;
59922;SDS011;45778;51.142;3.732;2023-06-26T03:51:49;20.27;;;5.50;;
59922;SDS011;45778;51.142;3.732;2023-06-26T03:54:14;16.42;;;4.38;;
59922;SDS011;45778;51.142;3.732;2023-06-26T03:56:40;14.85;;;4.60;;
59922;SDS011;45778;51.142;3.732;2023-06-26T03:59:06;18.35;;;5.13;;
59922;SDS011;45778;51.142;3.732;2023-06-26T04:01:31;16.10;;;4.25;;
59922;SDS011;45778;51.142;3.732;2023-06-26T04:03:57;11.27;;;4.90;;
59922;SDS011;45778;51.142;3.732;2023-06-26T04:06:23;9.90;;;4.25;;
59922;SDS011;45778;51.142;3.732;2023-06-26T04:08:48;15.07;;;4.90;;
59922;SDS011;45778;51.142;3.732;2023-06-26T04:11:14;14.55;;;4.40;;
59922;SDS011;45778;51.142;3.732;2023-06-26T04:13:40;11.82;;;4.57;;
59922;SDS011;45778;51.142;3.732;2023-06-26T04:16:05;10.07;;;3.63;;
59922;SDS011;45778;51.142;3.732;2023-06-26T04:18:31;18.65;;;4.00;;
59922;SDS011;45778;51.142;3.732;2023-06-26T04:21:04;14.75;;;4.50;;
59922;SDS011;45778;51.142;3.732;2023-06-26T04:23:36;13.65;;;4.20;;
59922;SDS011;45778;51.142;3.732;2023-06-26T04:26:02;13.23;;;4.07;;
59922;SDS011;45778;51.142;3.732;2023-06-26T04:28:29;12.68;;;3.58;;
59922;SDS011;45778;51.142;3.732;2023-06-26T04:30:58;12.63;;;3.97;;
59922;SDS011;45778;51.142;3.732;2023-06-26T04:33:25;13.82;;;3.78;;
59922;SDS011;45778;51.142;3.732;2023-06-26T04:35:51;11.38;;;3.38;;
59922;SDS011;45778;51.142;3.732;2023-06-26T04:38:18;8.00;;;3.17;;
59922;SDS011;45778;51.142;3.732;2023-06-26T04:40:44;11.95;;;3.72;;
59922;SDS011;45778;51.142;3.732;2023-06-26T04:43:10;12.70;;;4.00;;
59922;SDS011;45778;51.142;3.732;2023-06-26T04:45:36;9.18;;;3.42;;
59922;SDS011;45778;51.142;3.732;2023-06-26T04:48:02;9.60;;;3.10;;
59922;SDS011;45778;51.142;3.732;2023-06-26T04:50:28;12.55;;;3.30;;
59922;SDS011;45778;51.142;3.732;2023-06-26T04:52:55;11.32;;;3.17;;
59922;SDS011;45778;51.142;3.732;2023-06-26T04:55:23;6.43;;;2.50;;
59922;SDS011;45778;51.142;3.732;2023-06-26T04:57:49;14.30;;;3.53;;
59922;SDS011;45778;51.142;3.732;2023-06-26T05:00:15;13.90;;;3.53;;
59922;SDS011;45778;51.142;3.732;2023-06-26T05:02:41;11.68;;;2.70;;
59922;SDS011;45778;51.142;3.732;2023-06-26T05:05:07;7.70;;;2.33;;
59922;SDS011;45778;51.142;3.732;2023-06-26T05:07:33;8.38;;;2.50;;
59922;SDS011;45778;51.142;3.732;2023-06-26T05:09:59;13.40;;;2.72;;
59922;SDS011;45778;51.142;3.732;2023-06-26T05:12:24;9.50;;;2.50;;
59922;SDS011;45778;51.142;3.732;2023-06-26T05:14:50;8.77;;;2.97;;
59922;SDS011;45778;51.142;3.732;2023-06-26T05:17:16;9.98;;;2.60;;
59922;SDS011;45778;51.142;3.732;2023-06-26T05:19:41;9.25;;;2.80;;
59922;SDS011;45778;51.142;3.732;2023-06-26T05:22:07;8.02;;;2.50;;
59922;SDS011;45778;51.142;3.732;2023-06-26T05:24:37;8.30;;;1.95;;
59922;SDS011;45778;51.142;3.732;2023-06-26T05:27:04;10.73;;;2.28;;
59922;SDS011;45778;51.142;3.732;2023-06-26T05:29:31;7.45;;;2.47;;
59922;SDS011;45778;51.142;3.732;2023-06-26T05:31:58;8.60;;;2.10;;
59922;SDS011;45778;51.142;3.732;2023-06-26T05:34:24;7.22;;;2.08;;
59922;SDS011;45778;51.142;3.732;2023-06-26T05:36:54;6.53;;;1.77;;
59922;SDS011;45778;51.142;3.732;2023-06-26T05:39:23;4.85;;;2.17;;
59922;SDS011;45778;51.142;3.732;2023-06-26T05:41:49;6.10;;;1.63;;
59922;SDS011;45778;51.142;3.732;2023-06-26T05:44:15;9.40;;;1.52;;
59922;SDS011;45778;51.142;3.732;2023-06-26T05:46:41;6.30;;;1.27;;
59922;SDS011;45778;51.142;3.732;2023-06-26T05:49:07;5.18;;;1.27;;
59922;SDS011;45778;51.142;3.732;2023-06-26T05:51:32;3.88;;;1.30;;
59922;SDS011;45778;51.142;3.732;2023-06-26T05:53:58;8.20;;;1.90;;
59922;SDS011;45778;51.142;3.732;2023-06-26T05:56:24;3.55;;;1.00;;
59922;SDS011;45778;51.142;3.732;2023-06-26T05:58:51;8.07;;;1.42;;
59922;SDS011;45778;51.142;3.732;2023-06-26T06:01:17;4.80;;;1.35;;
59922;SDS011;45778;51.142;3.732;2023-06-26T06:03:44;3.80;;;1.02;;
59922;SDS011;45778;51.142;3.732;2023-06-26T06:06:10;2.45;;;0.90;;
59922;SDS011;45778;51.142;3.732;2023-06-26T06:08:36;6.45;;;1.98;;
59922;SDS011;45778;51.142;3.732;2023-06-26T06:11:02;6.57;;;1.00;;
59922;SDS011;45778;51.142;3.732;2023-06-26T06:13:27;8.65;;;1.52;;
59922;SDS011;45778;51.142;3.732;2023-06-26T06:15:53;3.08;;;1.02;;
59922;SDS011;45778;51.142;3.732;2023-06-26T06:18:20;4.10;;;0.90;;
59922;SDS011;45778;51.142;3.732;2023-06-26T06:20:46;11.30;;;1.45;;
59922;SDS011;45778;51.142;3.732;2023-06-26T06:23:12;4.43;;;1.13;;
59922;SDS011;45778;51.142;3.732;2023-06-26T06:25:38;5.43;;;1.23;;
59922;SDS011;45778;51.142;3.732;2023-06-26T06:28:04;5.75;;;1.15;;
59922;SDS011;45778;51.142;3.732;2023-06-26T06:30:30;7.32;;;1.08;;
59922;SDS011;45778;51.142;3.732;2023-06-26T06:32:57;2.55;;;0.82;;
59922;SDS011;45778;51.142;3.732;2023-06-26T06:35:23;3.03;;;0.98;;
59922;SDS011;45778;51.142;3.732;2023-06-26T06:37:49;5.80;;;1.00;;
59922;SDS011;45778;51.142;3.732;2023-06-26T06:40:14;6.00;;;1.02;;
59922;SDS011;45778;51.142;3.732;2023-06-26T06:42:40;3.03;;;1.00;;
59922;SDS011;45778;51.142;3.732;2023-06-26T06:45:06;4.55;;;1.08;;
59922;SDS011;45778;51.142;3.732;2023-06-26T06:47:32;4.45;;;1.08;;
59922;SDS011;45778;51.142;3.732;2023-06-26T06:49:59;3.88;;;0.93;;
59922;SDS011;45778;51.142;3.732;2023-06-26T06:52:33;7.70;;;0.93;;
59922;SDS011;45778;51.142;3.732;2023-06-26T06:55:00;3.17;;;0.88;;
59922;SDS011;45778;51.142;3.732;2023-06-26T06:57:30;2.90;;;1.08;;
59922;SDS011;45778;51.142;3.732;2023-06-26T07:00:00;3.88;;;1.40;;
59922;SDS011;45778;51.142;3.732;2023-06-26T07:02:35;7.57;;;1.75;;
59922;SDS011;45778;51.142;3.732;2023-06-26T07:05:02;4.93;;;1.02;;
59922;SDS011;45778;51.142;3.732;2023-06-26T07:07:29;6.82;;;1.30;;
59922;SDS011;45778;51.142;3.732;2023-06-26T07:09:56;4.28;;;1.17;;
59922;SDS011;45778;51.142;3.732;2023-06-26T07:12:23;3.55;;;0.98;;
59922;SDS011;45778;51.142;3.732;2023-06-26T07:14:49;5.32;;;1.13;;
59922;SDS011;45778;51.142;3.732;2023-06-26T07:17:15;5.90;;;1.45;;
59922;SDS011;45778;51.142;3.732;2023-06-26T07:19:40;5.78;;;0.90;;
59922;SDS011;45778;51.142;3.732;2023-06-26T07:22:06;6.20;;;1.00;;
59922;SDS011;45778;51.142;3.732;2023-06-26T07:24:32;2.35;;;0.80;;
59922;SDS011;45778;51.142;3.732;2023-06-26T07:26:57;3.72;;;1.05;;
59922;SDS011;45778;51.142;3.732;2023-06-26T07:29:23;6.35;;;1.08;;
59922;SDS011;45778;51.142;3.732;2023-06-26T07:31:49;5.55;;;1.25;;
59922;SDS011;45778;51.142;3.732;2023-06-26T07:34:14;3.95;;;1.23;;
59922;SDS011;45778;51.142;3.732;2023-06-26T07:36:40;2.95;;;0.77;;
59922;SDS011;45778;51.142;3.732;2023-06-26T07:39:06;3.55;;;1.05;;
59922;SDS011;45778;51.142;3.732;2023-06-26T07:41:31;4.25;;;0.90;;
59922;SDS011;45778;51.142;3.732;2023-06-26T07:43:58;9.18;;;1.52;;
59922;SDS011;45778;51.142;3.732;2023-06-26T07:46:23;5.15;;;0.93;;
59922;SDS011;45778;51.142;3.732;2023-06-26T07:48:49;6.57;;;1.55;;
59922;SDS011;45778;51.142;3.732;2023-06-26T07:51:15;1.73;;;0.90;;
59922;SDS011;45778;51.142;3.732;2023-06-26T07:53:40;4.38;;;1.25;;
59922;SDS011;45778;51.142;3.732;2023-06-26T07:56:06;4.07;;;1.08;;
59922;SDS011;45778;51.142;3.732;2023-06-26T07:58:32;4.28;;;0.90;;
59922;SDS011;45778;51.142;3.732;2023-06-26T08:00:57;3.13;;;0.93;;
59922;SDS011;45778;51.142;3.732;2023-06-26T08:03:23;2.63;;;1.02;;
59922;SDS011;45778;51.142;3.732;2023-06-26T08:05:49;9.18;;;1.00;;
59922;SDS011;45778;51.142;3.732;2023-06-26T08:08:15;3.25;;;0.80;;
59922;SDS011;45778;51.142;3.732;2023-06-26T08:10:40;6.00;;;1.17;;
59922;SDS011;45778;51.142;3.732;2023-06-26T08:13:06;3.95;;;1.20;;
59922;SDS011;45778;51.142;3.732;2023-06-26T08:15:32;2.70;;;0.63;;
59922;SDS011;45778;51.142;3.732;2023-06-26T08:17:57;6.10;;;1.30;;
59922;SDS011;45778;51.142;3.732;2023-06-26T08:20:23;3.75;;;1.10;;
59922;SDS011;45778;51.142;3.732;2023-06-26T08:22:49;3.88;;;0.93;;
59922;SDS011;45778;51.142;3.732;2023-06-26T08:25:16;3.75;;;1.02;;
59922;SDS011;45778;51.142;3.732;2023-06-26T08:27:42;4.07;;;1.10;;
59922;SDS011;45778;51.142;3.732;2023-06-26T08:30:08;5.75;;;1.00;;
59922;SDS011;45778;51.142;3.732;2023-06-26T08:32:34;2.75;;;1.25;;
59922;SDS011;45778;51.142;3.732;2023-06-26T08:34:59;3.40;;;1.02;;
59922;SDS011;45778;51.142;3.732;2023-06-26T08:37:25;4.07;;;1.08;;
59922;SDS011;45778;51.142;3.732;2023-06-26T08:39:51;4.30;;;1.20;;
59922;SDS011;45778;51.142;3.732;2023-06-26T08:42:16;4.35;;;0.93;;
59922;SDS011;45778;51.142;3.732;2023-06-26T08:44:42;4.13;;;1.13;;
59922;SDS011;45778;51.142;3.732;2023-06-26T08:47:08;4.80;;;1.13;;
59922;SDS011;45778;51.142;3.732;2023-06-26T08:50:04;4.45;;;0.93;;
59922;SDS011;45778;51.142;3.732;2023-06-26T08:52:56;3.17;;;1.23;;
59922;SDS011;45778;51.142;3.732;2023-06-26T08:55:33;8.20;;;1.40;;
59922;SDS011;45778;51.142;3.732;2023-06-26T08:58:01;2.13;;;0.70;;
59922;SDS011;45778;51.142;3.732;2023-06-26T09:00:26;3.97;;;0.88;;
59922;SDS011;45778;51.142;3.732;2023-06-26T09:02:52;1.77;;;0.70;;
59922;SDS011;45778;51.142;3.732;2023-06-26T09:05:19;3.10;;;0.85;;
59922;SDS011;45778;51.142;3.732;2023-06-26T09:07:44;4.80;;;1.02;;
59922;SDS011;45778;51.142;3.732;2023-06-26T09:10:10;5.28;;;0.95;;
59922;SDS011;45778;51.142;3.732;2023-06-26T09:12:36;12.40;;;1.58;;
59922;SDS011;45778;51.142;3.732;2023-06-26T09:15:03;6.88;;;0.95;;
59922;SDS011;45778;51.142;3.732;2023-06-26T09:17:33;4.53;;;1.20;;
59922;SDS011;45778;51.142;3.732;2023-06-26T09:20:03;4.37;;;1.10;;
59922;SDS011;45778;51.142;3.732;2023-06-26T09:22:32;3.63;;;1.15;;
59922;SDS011;45778;51.142;3.732;2023-06-26T09:25:00;3.92;;;0.80;;
59922;SDS011;45778;51.142;3.732;2023-06-26T09:27:26;3.33;;;0.93;;
59922;SDS011;45778;51.142;3.732;2023-06-26T09:29:52;3.08;;;1.00;;
59922;SDS011;45778;51.142;3.732;2023-06-26T09:32:18;3.83;;;0.88;;
59922;SDS011;45778;51.142;3.732;2023-06-26T09:34:44;4.88;;;0.88;;
59922;SDS011;45778;51.142;3.732;2023-06-26T09:37:11;4.88;;;1.17;;
59922;SDS011;45778;51.142;3.732;2023-06-26T09:39:38;3.53;;;0.95;;
59922;SDS011;45778;51.142;3.732;2023-06-26T09:42:04;4.95;;;0.77;;
59922;SDS011;45778;51.142;3.732;2023-06-26T09:44:32;2.85;;;1.38;;
59922;SDS011;45778;51.142;3.732;2023-06-26T09:46:58;7.10;;;1.23;;
59922;SDS011;45778;51.142;3.732;2023-06-26T09:49:27;4.95;;;0.70;;
59922;SDS011;45778;51.142;3.732;2023-06-26T09:51:52;2.38;;;0.82;;
59922;SDS011;45778;51.142;3.732;2023-06-26T09:54:18;6.15;;;1.08;;
59922;SDS011;45778;51.142;3.732;2023-06-26T09:56:47;4.88;;;1.00;;
59922;SDS011;45778;51.142;3.732;2023-06-26T09:59:13;4.53;;;1.30;;
59922;SDS011;45778;51.142;3.732;2023-06-26T10:01:40;3.58;;;1.00;;
59922;SDS011;45778;51.142;3.732;2023-06-26T10:04:11;3.38;;;1.10;;
59922;SDS011;45778;51.142;3.732;2023-06-26T10:06:38;4.63;;;0.93;;
59922;SDS011;45778;51.142;3.732;2023-06-26T10:09:10;3.92;;;1.00;;
59922;SDS011;45778;51.142;3.732;2023-06-26T10:11:43;1.40;;;0.70;;
59922;SDS011;45778;51.142;3.732;2023-06-26T10:14:16;3.03;;;0.80;;
59922;SDS011;45778;51.142;3.732;2023-06-26T10:16:44;1.23;;;0.70;;
59922;SDS011;45778;51.142;3.732;2023-06-26T10:19:11;4.70;;;1.08;;
59922;SDS011;45778;51.142;3.732;2023-06-26T10:21:38;3.67;;;1.08;;
59922;SDS011;45778;51.142;3.732;2023-06-26T10:24:05;2.92;;;0.80;;
59922;SDS011;45778;51.142;3.732;2023-06-26T10:26:31;3.10;;;0.93;;
59922;SDS011;45778;51.142;3.732;2023-06-26T10:29:05;2.65;;;0.85;;
59922;SDS011;45778;51.142;3.732;2023-06-26T10:31:33;2.05;;;0.68;;
59922;SDS011;45778;51.142;3.732;2023-06-26T10:34:00;4.10;;;1.10;;
59922;SDS011;45778;51.142;3.732;2023-06-26T10:36:27;4.55;;;1.20;;
59922;SDS011;45778;51.142;3.732;2023-06-26T10:38:55;7.70;;;1.20;;
59922;SDS011;45778;51.142;3.732;2023-06-26T10:41:22;3.75;;;1.00;;
59922;SDS011;45778;51.142;3.732;2023-06-26T10:43:49;8.40;;;1.52;;
59922;SDS011;45778;51.142;3.732;2023-06-26T10:46:17;1.55;;;0.70;;
59922;SDS011;45778;51.142;3.732;2023-06-26T10:49:00;9.65;;;1.95;;
59922;SDS011;45778;51.142;3.732;2023-06-26T10:51:26;4.15;;;1.25;;
59922;SDS011;45778;51.142;3.732;2023-06-26T10:53:56;3.78;;;1.08;;
59922;SDS011;45778;51.142;3.732;2023-06-26T10:59:27;3.15;;;1.00;;
59922;SDS011;45778;51.142;3.732;2023-06-26T11:04:35;4.63;;;1.08;;
59922;SDS011;45778;51.142;3.732;2023-06-26T11:07:18;2.28;;;0.80;;
59922;SDS011;45778;51.142;3.732;2023-06-26T11:09:57;5.70;;;1.15;;
59922;SDS011;45778;51.142;3.732;2023-06-26T11:12:41;2.28;;;0.80;;
59922;SDS011;45778;51.142;3.732;2023-06-26T11:17:38;3.75;;;0.80;;
59922;SDS011;45778;51.142;3.732;2023-06-26T11:20:08;6.07;;;0.88;;
59922;SDS011;45778;51.142;3.732;2023-06-26T11:22:37;1.60;;;0.70;;
59922;SDS011;45778;51.142;3.732;2023-06-26T11:25:04;3.35;;;0.70;;
59922;SDS011;45778;51.142;3.732;2023-06-26T11:27:31;1.55;;;0.90;;
59922;SDS011;45778;51.142;3.732;2023-06-26T11:29:58;3.65;;;0.82;;
59922;SDS011;45778;51.142;3.732;2023-06-26T11:32:25;3.70;;;0.80;;
59922;SDS011;45778;51.142;3.732;2023-06-26T11:34:51;5.40;;;1.10;;
59922;SDS011;45778;51.142;3.732;2023-06-26T11:37:17;5.55;;;1.10;;
59922;SDS011;45778;51.142;3.732;2023-06-26T11:39:44;3.83;;;0.77;;
59922;SDS011;45778;51.142;3.732;2023-06-26T11:42:10;3.88;;;1.08;;
59922;SDS011;45778;51.142;3.732;2023-06-26T11:44:39;4.15;;;1.17;;
59922;SDS011;45778;51.142;3.732;2023-06-26T11:47:07;1.88;;;0.80;;
59922;SDS011;45778;51.142;3.732;2023-06-26T11:49:33;3.90;;;0.80;;
59922;SDS011;45778;51.142;3.732;2023-06-26T11:51:58;4.25;;;0.70;;
59922;SDS011;45778;51.142;3.732;2023-06-26T11:54:27;1.95;;;0.70;;
59922;SDS011;45778;51.142;3.732;2023-06-26T11:56:57;1.48;;;1.15;;
59922;SDS011;45778;51.142;3.732;2023-06-26T11:59:24;2.83;;;0.93;;
59922;SDS011;45778;51.142;3.732;2023-06-26T12:01:57;4.00;;;0.77;;
59922;SDS011;45778;51.142;3.732;2023-06-26T12:04:23;2.25;;;0.60;;
59922;SDS011;45778;51.142;3.732;2023-06-26T12:06:50;1.50;;;0.70;;
59922;SDS011;45778;51.142;3.732;2023-06-26T12:09:18;3.70;;;0.77;;
59922;SDS011;45778;51.142;3.732;2023-06-26T12:11:45;8.15;;;1.23;;
59922;SDS011;45778;51.142;3.732;2023-06-26T12:14:16;2.47;;;1.05;;
59922;SDS011;45778;51.142;3.732;2023-06-26T12:16:43;1.25;;;0.70;;
59922;SDS011;45778;51.142;3.732;2023-06-26T12:19:09;2.72;;;0.63;;
59922;SDS011;45778;51.142;3.732;2023-06-26T12:24:15;2.88;;;1.02;;
59922;SDS011;45778;51.142;3.732;2023-06-26T12:26:45;3.25;;;0.80;;
59922;SDS011;45778;51.142;3.732;2023-06-26T12:29:13;2.35;;;0.80;;
59922;SDS011;45778;51.142;3.732;2023-06-26T12:31:40;2.15;;;0.60;;
59922;SDS011;45778;51.142;3.732;2023-06-26T12:34:11;2.80;;;0.70;;
59922;SDS011;45778;51.142;3.732;2023-06-26T12:36:43;2.30;;;0.80;;
59922;SDS011;45778;51.142;3.732;2023-06-26T12:39:10;6.43;;;1.58;;
59922;SDS011;45778;51.142;3.732;2023-06-26T12:42:00;2.88;;;1.08;;
59922;SDS011;45778;51.142;3.732;2023-06-26T12:44:28;3.45;;;0.85;;
59922;SDS011;45778;51.142;3.732;2023-06-26T12:46:59;2.00;;;1.05;;
59922;SDS011;45778;51.142;3.732;2023-06-26T12:49:29;1.77;;;0.95;;
59922;SDS011;45778;51.142;3.732;2023-06-26T12:52:09;3.65;;;0.93;;
59922;SDS011;45778;51.142;3.732;2023-06-26T12:54:36;3.25;;;0.90;;
59922;SDS011;45778;51.142;3.732;2023-06-26T12:57:04;2.25;;;0.70;;
59922;SDS011;45778;51.142;3.732;2023-06-26T12:59:30;2.38;;;0.90;;
59922;SDS011;45778;51.142;3.732;2023-06-26T13:01:57;2.72;;;1.13;;
59922;SDS011;45778;51.142;3.732;2023-06-26T13:04:23;2.30;;;0.90;;
59922;SDS011;45778;51.142;3.732;2023-06-26T13:06:49;2.40;;;0.88;;
59922;SDS011;45778;51.142;3.732;2023-06-26T13:09:15;3.17;;;1.05;;
59922;SDS011;45778;51.142;3.732;2023-06-26T13:11:41;4.03;;;0.90;;
59922;SDS011;45778;51.142;3.732;2023-06-26T13:14:07;2.63;;;0.80;;
59922;SDS011;45778;51.142;3.732;2023-06-26T13:16:33;2.83;;;0.75;;
59922;SDS011;45778;51.142;3.732;2023-06-26T13:18:58;2.58;;;0.80;;
59922;SDS011;45778;51.142;3.732;2023-06-26T13:21:26;3.05;;;1.10;;
59922;SDS011;45778;51.142;3.732;2023-06-26T13:23:52;6.05;;;0.90;;
59922;SDS011;45778;51.142;3.732;2023-06-26T13:26:18;2.58;;;1.00;;
59922;SDS011;45778;51.142;3.732;2023-06-26T13:28:44;2.40;;;1.00;;
59922;SDS011;45778;51.142;3.732;2023-06-26T13:31:10;2.10;;;0.77;;
59922;SDS011;45778;51.142;3.732;2023-06-26T13:33:35;4.00;;;0.80;;
59922;SDS011;45778;51.142;3.732;2023-06-26T13:36:01;4.90;;;0.73;;
59922;SDS011;45778;51.142;3.732;2023-06-26T13:38:29;2.45;;;0.85;;
59922;SDS011;45778;51.142;3.732;2023-06-26T13:40:57;4.40;;;0.80;;
59922;SDS011;45778;51.142;3.732;2023-06-26T13:43:25;3.55;;;0.95;;
59922;SDS011;45778;51.142;3.732;2023-06-26T13:45:52;3.25;;;0.90;;
59922;SDS011;45778;51.142;3.732;2023-06-26T13:48:18;2.92;;;1.08;;
59922;SDS011;45778;51.142;3.732;2023-06-26T13:50:44;3.05;;;0.90;;
59922;SDS011;45778;51.142;3.732;2023-06-26T13:53:11;3.72;;;1.10;;
59922;SDS011;45778;51.142;3.732;2023-06-26T13:55:37;3.17;;;0.88;;
59922;SDS011;45778;51.142;3.732;2023-06-26T13:58:06;2.17;;;0.88;;
59922;SDS011;45778;51.142;3.732;2023-06-26T14:00:33;3.80;;;1.00;;
59922;SDS011;45778;51.142;3.732;2023-06-26T14:03:00;1.55;;;1.00;;
59922;SDS011;45778;51.142;3.732;2023-06-26T14:05:26;4.47;;;0.73;;
59922;SDS011;45778;51.142;3.732;2023-06-26T14:07:52;3.33;;;0.90;;
59922;SDS011;45778;51.142;3.732;2023-06-26T14:10:19;4.82;;;0.90;;
59922;SDS011;45778;51.142;3.732;2023-06-26T14:12:45;2.80;;;0.90;;
59922;SDS011;45778;51.142;3.732;2023-06-26T14:15:11;1.77;;;0.90;;
59922;SDS011;45778;51.142;3.732;2023-06-26T14:17:37;4.88;;;1.13;;
59922;SDS011;45778;51.142;3.732;2023-06-26T14:20:05;4.88;;;1.20;;
59922;SDS011;45778;51.142;3.732;2023-06-26T14:22:35;1.50;;;0.70;;
59922;SDS011;45778;51.142;3.732;2023-06-26T14:25:01;3.13;;;0.70;;
59922;SDS011;45778;51.142;3.732;2023-06-26T14:27:28;2.45;;;0.70;;
59922;SDS011;45778;51.142;3.732;2023-06-26T14:29:53;1.58;;;0.60;;
59922;SDS011;45778;51.142;3.732;2023-06-26T14:32:19;3.35;;;0.85;;
59922;SDS011;45778;51.142;3.732;2023-06-26T14:34:45;3.35;;;0.90;;
59922;SDS011;45778;51.142;3.732;2023-06-26T14:37:10;4.93;;;0.73;;
59922;SDS011;45778;51.142;3.732;2023-06-26T14:39:36;1.65;;;0.68;;
59922;SDS011;45778;51.142;3.732;2023-06-26T14:42:03;2.47;;;0.52;;
59922;SDS011;45778;51.142;3.732;2023-06-26T14:44:30;1.08;;;0.80;;
59922;SDS011;45778;51.142;3.732;2023-06-26T14:46:55;2.53;;;0.93;;
59922;SDS011;45778;51.142;3.732;2023-06-26T14:49:21;1.20;;;0.70;;
59922;SDS011;45778;51.142;3.732;2023-06-26T14:51:47;2.70;;;0.75;;
59922;SDS011;45778;51.142;3.732;2023-06-26T14:54:13;2.80;;;0.70;;
59922;SDS011;45778;51.142;3.732;2023-06-26T14:56:39;2.10;;;0.88;;
59922;SDS011;45778;51.142;3.732;2023-06-26T14:59:04;2.42;;;0.90;;
59922;SDS011;45778;51.142;3.732;2023-06-26T15:01:32;3.35;;;0.55;;
59922;SDS011;45778;51.142;3.732;2023-06-26T15:03:59;2.83;;;0.68;;
59922;SDS011;45778;51.142;3.732;2023-06-26T15:06:24;3.65;;;0.80;;